Time;durP1;ratioP1;P1;durP2;ratioP2;P2;SDS_P1;SDS_P2;PMS_P1;PMS_P2;Temp;Humidity;BMP_temperature;BMP_pressure;BME280_temperature;BME280_humidity;BME280_pressure;Samples;Min_cycle;Max_cycle;Signal;HPM_P1;HPM_P2
2021/01/11 00:00:32;;;;;;;9.67;6.20;;;;;;;;;;5059509;28;20484;-73
2021/01/11 00:02:59;;;;;;;10.57;6.00;;;;;;;;;;5059306;28;20507;-73
2021/01/11 00:05:26;;;;;;;9.37;5.93;;;;;;;;;;5059260;28;20549;-73
2021/01/11 00:07:55;;;;;;;7.37;5.33;;;;;;;;;;5059102;28;20437;-73
2021/01/11 00:10:22;;;;;;;9.77;5.63;;;;;;;;;;5059139;28;20525;-73
2021/01/11 00:12:49;;;;;;;8.10;5.37;;;;;;;;;;5059267;28;20456;-73
2021/01/11 00:15:16;;;;;;;11.30;6.23;;;;;;;;;;5058902;28;20496;-73
2021/01/11 00:17:44;;;;;;;9.37;6.80;;;;;;;;;;5059117;28;20524;-73
2021/01/11 00:20:11;;;;;;;9.07;6.27;;;;;;;;;;5057811;28;20537;-73
2021/01/11 00:22:42;;;;;;;10.07;5.93;;;;;;;;;;5058900;28;20437;-73
2021/01/11 00:25:10;;;;;;;8.23;5.83;;;;;;;;;;5058597;28;20555;-73
2021/01/11 00:27:37;;;;;;;7.00;5.63;;;;;;;;;;5058654;28;20982;-73
2021/01/11 00:30:06;;;;;;;7.33;5.87;;;;;;;;;;5058710;28;20445;-73
2021/01/11 00:32:34;;;;;;;9.37;6.50;;;;;;;;;;5058666;28;20481;-74
2021/01/11 00:35:02;;;;;;;8.97;5.97;;;;;;;;;;5058534;28;20465;-73
2021/01/11 00:37:29;;;;;;;9.40;6.43;;;;;;;;;;5058568;28;20477;-73
2021/01/11 00:39:56;;;;;;;7.83;5.57;;;;;;;;;;5058594;28;20445;-73
2021/01/11 00:42:23;;;;;;;9.60;5.77;;;;;;;;;;5058435;28;20448;-73
2021/01/11 00:44:50;;;;;;;7.17;4.97;;;;;;;;;;5058507;28;20470;-73
2021/01/11 00:47:18;;;;;;;10.93;6.10;;;;;;;;;;5058481;28;20455;-73
2021/01/11 00:49:45;;;;;;;6.93;5.60;;;;;;;;;;5058576;28;20472;-73
2021/01/11 00:52:12;;;;;;;7.53;5.23;;;;;;;;;;5058048;28;20453;-73
2021/01/11 00:54:42;;;;;;;6.30;5.50;;;;;;;;;;5058510;28;20465;-73
2021/01/11 00:57:09;;;;;;;8.23;5.73;;;;;;;;;;5058036;28;20536;-73
2021/01/11 00:59:36;;;;;;;9.60;5.80;;;;;;;;;;5058587;28;20446;-73
2021/01/11 01:02:04;;;;;;;6.73;5.37;;;;;;;;;;5058271;28;20457;-73
2021/01/11 01:04:32;;;;;;;7.83;5.43;;;;;;;;;;5058407;28;20469;-73
2021/01/11 01:07:01;;;;;;;8.23;5.70;;;;;;;;;;5057982;28;20489;-73
2021/01/11 01:09:28;;;;;;;8.70;5.33;;;;;;;;;;5058071;28;20445;-73
2021/01/11 01:11:55;;;;;;;9.10;6.23;;;;;;;;;;5058021;28;20819;-73
2021/01/11 01:14:22;;;;;;;9.83;6.33;;;;;;;;;;5057835;28;21011;-73
2021/01/11 01:16:49;;;;;;;10.63;5.87;;;;;;;;;;5058091;28;20517;-73
2021/01/11 01:19:16;;;;;;;8.30;5.73;;;;;;;;;;5058234;28;20438;-73
2021/01/11 01:21:44;;;;;;;11.43;6.23;;;;;;;;;;5057629;28;20449;-73
2021/01/11 01:24:10;;;;;;;9.03;6.10;;;;;;;;;;5057794;28;20517;-73
2021/01/11 01:26:37;;;;;;;8.57;6.33;;;;;;;;;;5057535;28;20848;-73
2021/01/11 01:29:04;;;;;;;8.03;5.37;;;;;;;;;;5057994;28;20532;-73
2021/01/11 01:31:31;;;;;;;7.93;5.47;;;;;;;;;;5057754;28;20528;-73
2021/01/11 01:33:59;;;;;;;11.07;6.67;;;;;;;;;;5057829;28;20456;-73
2021/01/11 01:36:26;;;;;;;8.43;6.33;;;;;;;;;;5057325;28;20802;-73
2021/01/11 01:38:54;;;;;;;7.70;5.97;;;;;;;;;;5057485;28;20477;-73
2021/01/11 01:41:21;;;;;;;9.33;6.30;;;;;;;;;;5057589;28;20952;-73
2021/01/11 01:43:48;;;;;;;11.23;6.47;;;;;;;;;;5057850;28;20452;-73
2021/01/11 01:46:16;;;;;;;8.47;5.57;;;;;;;;;;5057345;28;20841;-73
2021/01/11 01:48:43;;;;;;;10.20;6.60;;;;;;;;;;5057708;28;20847;-73
2021/01/11 01:51:11;;;;;;;11.47;7.33;;;;;;;;;;5057518;28;21271;-73
2021/01/11 01:53:38;;;;;;;10.13;6.30;;;;;;;;;;5058038;28;20520;-73
2021/01/11 01:56:06;;;;;;;10.73;6.57;;;;;;;;;;5057620;28;20462;-73
2021/01/11 01:58:34;;;;;;;9.83;6.43;;;;;;;;;;5057607;28;20831;-73
2021/01/11 02:01:02;;;;;;;7.83;5.57;;;;;;;;;;5057774;28;20477;-73
2021/01/11 02:03:29;;;;;;;9.07;6.27;;;;;;;;;;5057414;28;20453;-73
2021/01/11 02:05:59;;;;;;;10.27;6.20;;;;;;;;;;5056988;28;20490;-73
2021/01/11 02:08:29;;;;;;;9.90;6.33;;;;;;;;;;5057514;28;20440;-73
2021/01/11 02:11:02;;;;;;;10.27;6.83;;;;;;;;;;5057361;28;20534;-73
2021/01/11 02:13:39;;;;;;;8.33;6.10;;;;;;;;;;5057368;28;20928;-73
2021/01/11 02:16:09;;;;;;;7.40;5.93;;;;;;;;;;5057474;28;20487;-73
2021/01/11 02:18:43;;;;;;;8.37;6.47;;;;;;;;;;5057594;28;20971;-73
2021/01/11 02:21:25;;;;;;;9.77;7.13;;;;;;;;;;5057010;28;20451;-73
2021/01/11 02:23:57;;;;;;;9.57;6.67;;;;;;;;;;5055326;28;20449;-73
2021/01/11 02:26:34;;;;;;;10.70;7.47;;;;;;;;;;5057202;28;20576;-73
2021/01/11 02:29:10;;;;;;;10.03;6.80;;;;;;;;;;5057453;28;20527;-73
2021/01/11 02:31:39;;;;;;;9.30;5.80;;;;;;;;;;5057345;28;20449;-73
2021/01/11 02:34:06;;;;;;;10.33;6.90;;;;;;;;;;5057121;28;20450;-73
2021/01/11 02:36:33;;;;;;;11.47;6.90;;;;;;;;;;5057108;28;20548;-73
2021/01/11 02:39:00;;;;;;;9.17;6.63;;;;;;;;;;5056757;28;20531;-73
2021/01/11 02:41:28;;;;;;;7.23;6.03;;;;;;;;;;5053745;28;20499;-73
2021/01/11 02:43:55;;;;;;;10.30;6.37;;;;;;;;;;5058069;28;20533;-73
2021/01/11 02:46:22;;;;;;;9.90;6.57;;;;;;;;;;5060510;28;20846;-73
2021/01/11 02:48:53;;;;;;;12.00;6.80;;;;;;;;;;5060738;28;20476;-73
2021/01/11 02:51:24;;;;;;;9.47;6.73;;;;;;;;;;5060382;28;20442;-73
2021/01/11 02:53:59;;;;;;;10.07;6.53;;;;;;;;;;5060653;28;20448;-73
2021/01/11 02:56:30;;;;;;;9.50;5.77;;;;;;;;;;5060490;28;20473;-73
2021/01/11 02:59:08;;;;;;;8.10;6.40;;;;;;;;;;5060612;28;20528;-73
2021/01/11 03:01:39;;;;;;;7.80;5.47;;;;;;;;;;5060544;28;20469;-73
2021/01/11 03:04:08;;;;;;;8.53;6.47;;;;;;;;;;5060483;28;20505;-72
2021/01/11 03:06:35;;;;;;;10.97;6.17;;;;;;;;;;5059814;28;20480;-73
2021/01/11 03:09:06;;;;;;;12.73;6.60;;;;;;;;;;5060536;28;20516;-72
2021/01/11 03:11:36;;;;;;;7.87;6.23;;;;;;;;;;5060498;28;20462;-72
2021/01/11 03:14:03;;;;;;;9.60;6.40;;;;;;;;;;5060125;28;20805;-72
2021/01/11 03:16:30;;;;;;;9.83;6.63;;;;;;;;;;5060500;28;20450;-72
2021/01/11 03:18:58;;;;;;;10.47;6.13;;;;;;;;;;5060322;28;20528;-72
2021/01/11 03:21:26;;;;;;;10.97;6.80;;;;;;;;;;5060092;28;20532;-72
2021/01/11 03:23:53;;;;;;;9.33;6.30;;;;;;;;;;5060222;28;20536;-72
2021/01/11 03:26:23;;;;;;;8.23;5.70;;;;;;;;;;5059657;28;20568;-72
2021/01/11 03:28:50;;;;;;;10.00;6.97;;;;;;;;;;5060196;28;20449;-73
2021/01/11 03:31:17;;;;;;;9.97;5.93;;;;;;;;;;5060000;28;20488;-72
2021/01/11 03:33:44;;;;;;;10.63;6.57;;;;;;;;;;5059847;28;20940;-73
2021/01/11 03:36:11;;;;;;;11.90;7.67;;;;;;;;;;5059682;28;20548;-72
2021/01/11 03:38:40;;;;;;;9.63;6.33;;;;;;;;;;5059708;28;20481;-72
2021/01/11 03:41:08;;;;;;;11.33;6.00;;;;;;;;;;5059647;28;20448;-73
2021/01/11 03:43:36;;;;;;;11.37;6.67;;;;;;;;;;5059937;28;20456;-72
2021/01/11 03:46:04;;;;;;;9.83;6.27;;;;;;;;;;5059654;28;20572;-72
2021/01/11 03:48:30;;;;;;;10.63;7.23;;;;;;;;;;5059855;28;20510;-72
2021/01/11 03:50:57;;;;;;;12.57;6.43;;;;;;;;;;5059437;28;20453;-72
2021/01/11 03:53:24;;;;;;;10.73;6.27;;;;;;;;;;5059495;28;20925;-72
2021/01/11 03:55:52;;;;;;;9.50;6.37;;;;;;;;;;5059309;28;20472;-72
2021/01/11 03:58:19;;;;;;;10.40;6.13;;;;;;;;;;5059489;28;20485;-72
2021/01/11 04:00:47;;;;;;;11.23;6.80;;;;;;;;;;5059262;28;20450;-72
2021/01/11 04:03:14;;;;;;;9.67;6.17;;;;;;;;;;5059258;28;20451;-72
2021/01/11 04:05:43;;;;;;;10.43;6.63;;;;;;;;;;5059138;28;20493;-72
2021/01/11 04:08:10;;;;;;;9.20;5.87;;;;;;;;;;5059380;28;20437;-72
2021/01/11 04:10:37;;;;;;;6.97;5.90;;;;;;;;;;5059076;28;20984;-72
2021/01/11 04:13:05;;;;;;;9.53;6.20;;;;;;;;;;5059386;28;20528;-72
2021/01/11 04:15:32;;;;;;;9.47;6.27;;;;;;;;;;5059055;28;20460;-73
2021/01/11 04:17:59;;;;;;;8.77;6.43;;;;;;;;;;5059287;28;20457;-72
2021/01/11 04:20:26;;;;;;;9.87;6.70;;;;;;;;;;5058947;28;20813;-72
2021/01/11 04:22:53;;;;;;;11.10;6.87;;;;;;;;;;5059082;28;20449;-72
2021/01/11 04:25:21;;;;;;;9.80;6.73;;;;;;;;;;5058888;28;20465;-72
2021/01/11 04:27:51;;;;;;;10.37;6.60;;;;;;;;;;5058995;28;20445;-72
2021/01/11 04:30:20;;;;;;;10.30;6.43;;;;;;;;;;5059164;28;20521;-72
2021/01/11 04:32:46;;;;;;;10.33;6.90;;;;;;;;;;5058891;28;20453;-72
2021/01/11 04:35:13;;;;;;;12.67;7.50;;;;;;;;;;5058564;28;20967;-73
2021/01/11 04:37:42;;;;;;;9.27;6.57;;;;;;;;;;5058086;28;20912;-72
2021/01/11 04:40:10;;;;;;;9.13;6.40;;;;;;;;;;5058531;28;20532;-72
2021/01/11 04:42:41;;;;;;;11.13;6.23;;;;;;;;;;5058564;28;20514;-72
2021/01/11 04:45:08;;;;;;;9.87;7.47;;;;;;;;;;5058689;28;20469;-72
2021/01/11 04:47:37;;;;;;;9.10;6.33;;;;;;;;;;5053925;28;20491;-72
2021/01/11 04:50:05;;;;;;;11.23;7.53;;;;;;;;;;5058637;28;20495;-72
2021/01/11 04:52:32;;;;;;;10.07;6.70;;;;;;;;;;5058332;28;20532;-72
2021/01/11 04:55:01;;;;;;;10.57;6.87;;;;;;;;;;5058339;28;20457;-72
2021/01/11 04:57:32;;;;;;;9.53;6.83;;;;;;;;;;5058205;28;20491;-72
2021/01/11 05:00:01;;;;;;;13.30;7.53;;;;;;;;;;5058408;28;20441;-72
2021/01/11 05:02:29;;;;;;;12.90;7.50;;;;;;;;;;5058365;28;20477;-72
2021/01/11 05:04:58;;;;;;;12.00;7.60;;;;;;;;;;5058374;28;20461;-72
2021/01/11 05:07:30;;;;;;;10.67;6.90;;;;;;;;;;5057104;28;20842;-72
2021/01/11 05:09:58;;;;;;;11.00;7.43;;;;;;;;;;5058366;28;20446;-72
2021/01/11 05:12:26;;;;;;;10.40;7.20;;;;;;;;;;5057829;28;20967;-72
2021/01/11 05:15:08;;;;;;;9.43;6.10;;;;;;;;;;5058078;28;20601;-72
2021/01/11 05:17:40;;;;;;;9.73;6.67;;;;;;;;;;5057852;28;20507;-71
2021/01/11 05:20:09;;;;;;;11.00;6.83;;;;;;;;;;5058296;28;20444;-71
2021/01/11 05:22:36;;;;;;;8.13;6.17;;;;;;;;;;5058114;28;20448;-71
2021/01/11 05:25:11;;;;;;;9.80;6.47;;;;;;;;;;5058442;28;20533;-71
2021/01/11 05:27:38;;;;;;;11.03;7.33;;;;;;;;;;5057897;28;20496;-70
2021/01/11 05:30:07;;;;;;;12.20;7.13;;;;;;;;;;5059574;28;20445;-71
2021/01/11 05:32:34;;;;;;;9.33;6.03;;;;;;;;;;5058968;28;20449;-71
2021/01/11 05:35:01;;;;;;;9.53;6.43;;;;;;;;;;5058211;28;20544;-72
2021/01/11 05:37:33;;;;;;;10.60;7.90;;;;;;;;;;5057302;28;20826;-71
2021/01/11 05:40:07;;;;;;;11.47;7.27;;;;;;;;;;5057439;28;20517;-71
2021/01/11 05:42:34;;;;;;;14.33;7.73;;;;;;;;;;5057406;28;20453;-71
2021/01/11 05:45:15;;;;;;;11.70;7.23;;;;;;;;;;5058430;28;20471;-71
2021/01/11 05:47:55;;;;;;;18.97;11.20;;;;;;;;;;5055143;28;20573;-71
2021/01/11 05:50:22;;;;;;;12.93;9.47;;;;;;;;;;5060156;28;20445;-74
2021/01/11 05:52:50;;;;;;;10.63;7.17;;;;;;;;;;5058008;28;20525;-74
2021/01/11 05:55:20;;;;;;;12.27;7.37;;;;;;;;;;5057889;28;20465;-73
2021/01/11 05:57:54;;;;;;;11.37;6.80;;;;;;;;;;5057466;28;20812;-73
2021/01/11 06:00:21;;;;;;;10.67;6.80;;;;;;;;;;5057678;28;20458;-73
2021/01/11 06:02:49;;;;;;;9.17;7.07;;;;;;;;;;5057633;28;20477;-74
2021/01/11 06:05:17;;;;;;;11.00;7.67;;;;;;;;;;5057233;28;20904;-74
2021/01/11 06:07:44;;;;;;;11.40;6.30;;;;;;;;;;5057047;28;20485;-73
2021/01/11 06:10:13;;;;;;;10.13;6.90;;;;;;;;;;5057465;28;20437;-73
2021/01/11 06:12:41;;;;;;;10.30;6.93;;;;;;;;;;5057406;28;20438;-73
2021/01/11 06:15:09;;;;;;;10.23;7.13;;;;;;;;;;5057128;28;20465;-73
2021/01/11 06:17:36;;;;;;;8.77;7.10;;;;;;;;;;5058264;28;20480;-73
2021/01/11 06:20:05;;;;;;;11.03;7.37;;;;;;;;;;5061412;28;20485;-73
2021/01/11 06:22:51;;;;;;;10.47;7.00;;;;;;;;;;5061050;28;20528;-73
2021/01/11 06:25:36;;;;;;;12.33;7.73;;;;;;;;;;5061114;28;20481;-73
2021/01/11 06:28:05;;;;;;;11.27;7.13;;;;;;;;;;5061224;28;20445;-71
2021/01/11 06:30:36;;;;;;;11.27;7.90;;;;;;;;;;5056523;28;20869;-71
2021/01/11 06:33:07;;;;;;;14.33;7.83;;;;;;;;;;5060893;28;20518;-72
2021/01/11 06:35:35;;;;;;;10.63;7.80;;;;;;;;;;5060702;28;20449;-72
2021/01/11 06:38:10;;;;;;;9.57;7.20;;;;;;;;;;5060547;28;20473;-70
2021/01/11 06:40:37;;;;;;;9.63;7.50;;;;;;;;;;5061042;28;20512;-69
2021/01/11 06:43:05;;;;;;;11.23;7.70;;;;;;;;;;5060485;28;20976;-70
2021/01/11 06:45:36;;;;;;;12.87;7.37;;;;;;;;;;5060480;28;20519;-70
2021/01/11 06:48:04;;;;;;;10.80;6.50;;;;;;;;;;5060394;28;20448;-70
2021/01/11 06:50:31;;;;;;;12.03;7.43;;;;;;;;;;5060005;28;20927;-70
2021/01/11 06:52:59;;;;;;;11.63;7.17;;;;;;;;;;5060288;28;20460;-71
2021/01/11 06:55:26;;;;;;;10.57;8.03;;;;;;;;;;5059331;28;20467;-71
2021/01/11 06:57:55;;;;;;;12.73;8.43;;;;;;;;;;5064345;28;20447;-69
2021/01/11 07:00:29;;;;;;;12.77;7.77;;;;;;;;;;5067345;28;20449;-71
2021/01/11 07:02:58;;;;;;;9.10;7.07;;;;;;;;;;5063233;28;20941;-70
2021/01/11 07:05:45;;;;;;;13.20;7.33;;;;;;;;;;5058079;28;21026;-71
2021/01/11 07:08:15;;;;;;;14.17;8.00;;;;;;;;;;5057837;28;20485;-71
2021/01/11 07:10:43;;;;;;;11.63;8.17;;;;;;;;;;5057455;28;20485;-71
2021/01/11 07:13:23;;;;;;;13.63;8.57;;;;;;;;;;5059278;28;20432;-72
2021/01/11 07:16:05;;;;;;;10.27;7.90;;;;;;;;;;5058793;28;20461;-72
2021/01/11 07:18:45;;;;;;;10.20;7.37;;;;;;;;;;5059116;28;20441;-71
2021/01/11 07:21:19;;;;;;;11.40;6.97;;;;;;;;;;5057094;28;20461;-71
2021/01/11 07:23:46;;;;;;;10.30;7.50;;;;;;;;;;5059328;28;20437;-73
2021/01/11 07:26:15;;;;;;;12.57;8.67;;;;;;;;;;5057268;28;20725;-72
2021/01/11 07:28:55;;;;;;;12.83;8.10;;;;;;;;;;5058201;28;20465;-72
2021/01/11 07:31:26;;;;;;;12.23;7.73;;;;;;;;;;5043067;28;20446;-72
2021/01/11 07:34:01;;;;;;;11.07;8.07;;;;;;;;;;5056858;28;20438;-72
2021/01/11 07:36:29;;;;;;;11.83;8.10;;;;;;;;;;5057880;28;20433;-74
2021/01/11 07:39:07;;;;;;;13.43;8.77;;;;;;;;;;5058237;28;20518;-74
2021/01/11 07:41:34;;;;;;;13.37;8.30;;;;;;;;;;5058590;28;20457;-73
2021/01/11 07:44:11;;;;;;;12.33;8.30;;;;;;;;;;5057350;28;20937;-73
2021/01/11 07:46:38;;;;;;;11.90;7.63;;;;;;;;;;5047422;28;20493;-73
2021/01/11 07:49:16;;;;;;;11.10;7.03;;;;;;;;;;5059025;28;20573;-73
2021/01/11 07:51:44;;;;;;;13.67;7.10;;;;;;;;;;5060172;28;20445;-73
2021/01/11 07:54:13;;;;;;;11.03;7.70;;;;;;;;;;5070969;28;20475;-72
2021/01/11 07:56:40;;;;;;;13.40;8.03;;;;;;;;;;5058892;28;20453;-73
2021/01/11 07:59:08;;;;;;;11.20;7.23;;;;;;;;;;5059429;28;20481;-73
2021/01/11 08:01:37;;;;;;;13.37;7.80;;;;;;;;;;5059055;28;20445;-72
2021/01/11 08:04:04;;;;;;;11.40;8.00;;;;;;;;;;5059081;28;20480;-72
2021/01/11 08:06:42;;;;;;;11.30;7.47;;;;;;;;;;5058822;28;20971;-72
2021/01/11 08:09:10;;;;;;;13.17;8.73;;;;;;;;;;5059068;28;20858;-73
2021/01/11 08:11:37;;;;;;;14.03;8.60;;;;;;;;;;5058958;28;20464;-73
2021/01/11 08:14:05;;;;;;;11.43;8.80;;;;;;;;;;5056924;28;20540;-72
2021/01/11 08:16:33;;;;;;;14.23;8.17;;;;;;;;;;5051451;28;20444;-73
2021/01/11 08:19:04;;;;;;;11.03;8.00;;;;;;;;;;5058923;28;20472;-73
2021/01/11 08:21:31;;;;;;;14.90;9.00;;;;;;;;;;5058233;28;20442;-73
2021/01/11 08:24:03;;;;;;;18.33;8.23;;;;;;;;;;5058799;28;20500;-73
2021/01/11 08:26:31;;;;;;;14.07;8.37;;;;;;;;;;5058620;28;20515;-73
2021/01/11 08:28:58;;;;;;;11.20;8.30;;;;;;;;;;5058834;28;20509;-73
2021/01/11 08:31:26;;;;;;;13.73;8.83;;;;;;;;;;5058576;28;20457;-73
2021/01/11 08:33:54;;;;;;;11.93;8.50;;;;;;;;;;5047729;28;20897;-72
2021/01/11 08:36:22;;;;;;;13.73;8.40;;;;;;;;;;5054259;28;20473;-72
2021/01/11 08:39:06;;;;;;;11.13;7.23;;;;;;;;;;5058260;28;20560;-73
2021/01/11 08:41:34;;;;;;;14.47;9.17;;;;;;;;;;5057176;28;20540;-73
2021/01/11 08:44:01;;;;;;;11.73;8.00;;;;;;;;;;5058507;28;20433;-73
2021/01/11 08:46:47;;;;;;;15.00;8.50;;;;;;;;;;5058318;28;20568;-73
2021/01/11 08:49:14;;;;;;;10.67;7.70;;;;;;;;;;5058305;28;20461;-73
2021/01/11 08:51:41;;;;;;;10.47;7.23;;;;;;;;;;5058496;28;20450;-71
2021/01/11 08:54:10;;;;;;;10.90;7.33;;;;;;;;;;5057998;28;20460;-72
2021/01/11 08:56:37;;;;;;;11.47;7.70;;;;;;;;;;5057868;28;20831;-71
2021/01/11 08:59:04;;;;;;;12.57;8.97;;;;;;;;;;5058256;28;20445;-71
2021/01/11 09:01:35;;;;;;;13.07;8.03;;;;;;;;;;5057913;28;20516;-69
2021/01/11 09:04:03;;;;;;;13.00;7.90;;;;;;;;;;5055991;28;20958;-71
2021/01/11 09:06:37;;;;;;;13.40;9.03;;;;;;;;;;5057832;28;20564;-71
2021/01/11 09:09:05;;;;;;;14.47;9.07;;;;;;;;;;5057821;28;20441;-71
2021/01/11 09:11:33;;;;;;;13.10;8.13;;;;;;;;;;5057780;28;20472;-71
2021/01/11 09:14:06;;;;;;;13.70;8.53;;;;;;;;;;5057832;28;20528;-71
2021/01/11 09:16:34;;;;;;;15.10;8.17;;;;;;;;;;5057974;28;20453;-71
2021/01/11 09:19:05;;;;;;;12.30;8.50;;;;;;;;;;5057967;28;20445;-71
2021/01/11 09:21:32;;;;;;;13.57;9.10;;;;;;;;;;5057725;28;20434;-71
2021/01/11 09:23:59;;;;;;;15.80;8.93;;;;;;;;;;5057733;28;20449;-70
2021/01/11 09:26:27;;;;;;;11.37;7.80;;;;;;;;;;5057526;28;20586;-70
2021/01/11 09:28:55;;;;;;;11.60;8.67;;;;;;;;;;5057878;28;20507;-71
2021/01/11 09:31:23;;;;;;;13.40;8.18;;;;;;;;;;5057667;28;20457;-71
2021/01/11 09:33:52;;;;;;;12.80;8.93;;;;;;;;;;5057214;28;20207;-71
2021/01/11 09:36:20;;;;;;;14.20;8.33;;;;;;;;;;5049816;28;20265;-71
2021/01/11 09:38:47;;;;;;;15.17;8.33;;;;;;;;;;5057348;28;20485;-71
2021/01/11 09:41:14;;;;;;;12.03;7.80;;;;;;;;;;5057374;28;20517;-71
2021/01/11 09:43:42;;;;;;;11.00;8.27;;;;;;;;;;5057291;28;20468;-71
2021/01/11 09:46:11;;;;;;;12.53;8.27;;;;;;;;;;5057441;28;20469;-72
2021/01/11 09:48:38;;;;;;;16.90;9.23;;;;;;;;;;5057434;28;20440;-71
2021/01/11 09:51:05;;;;;;;13.57;7.93;;;;;;;;;;5057213;28;20473;-71
2021/01/11 09:53:32;;;;;;;11.30;7.73;;;;;;;;;;5061864;28;20499;-69
2021/01/11 09:55:59;;;;;;;12.73;8.60;;;;;;;;;;5063971;28;20468;-72
2021/01/11 09:58:26;;;;;;;13.40;8.97;;;;;;;;;;5054523;28;20524;-68
2021/01/11 10:00:57;;;;;;;17.57;8.70;;;;;;;;;;5063787;28;20512;-69
2021/01/11 10:03:25;;;;;;;12.17;7.80;;;;;;;;;;5062333;28;20460;-69
2021/01/11 10:05:55;;;;;;;13.43;9.90;;;;;;;;;;5063234;28;20512;-70
2021/01/11 10:08:23;;;;;;;16.93;7.87;;;;;;;;;;5063946;28;20496;-70
2021/01/11 10:10:50;;;;;;;17.40;9.33;;;;;;;;;;5063948;28;20438;-71
2021/01/11 10:13:17;;;;;;;11.70;8.87;;;;;;;;;;5063861;28;20473;-70
2021/01/11 10:15:45;;;;;;;15.27;9.20;;;;;;;;;;5063535;28;20976;-70
2021/01/11 10:18:12;;;;;;;12.40;9.20;;;;;;;;;;5063763;28;20481;-70
2021/01/11 10:20:42;;;;;;;11.67;7.90;;;;;;;;;;5063622;28;20812;-70
2021/01/11 10:23:10;;;;;;;13.13;9.73;;;;;;;;;;5063679;28;20869;-71
2021/01/11 10:25:37;;;;;;;16.17;9.60;;;;;;;;;;5063519;28;20857;-71
2021/01/11 10:28:05;;;;;;;12.90;8.03;;;;;;;;;;5063371;28;20493;-71
2021/01/11 10:30:32;;;;;;;14.13;8.17;;;;;;;;;;5064011;28;20449;-72
2021/01/11 10:32:59;;;;;;;14.67;9.10;;;;;;;;;;5063540;28;20449;-71
2021/01/11 10:35:26;;;;;;;13.60;9.40;;;;;;;;;;5051897;28;20923;-71
2021/01/11 10:37:54;;;;;;;14.03;8.30;;;;;;;;;;5062376;28;20478;-71
2021/01/11 10:40:21;;;;;;;12.43;7.87;;;;;;;;;;5063555;28;20437;-71
2021/01/11 10:42:50;;;;;;;15.37;8.70;;;;;;;;;;5063792;28;20453;-71
2021/01/11 10:45:17;;;;;;;11.60;8.70;;;;;;;;;;5063080;28;20469;-71
2021/01/11 10:47:44;;;;;;;13.73;9.13;;;;;;;;;;5063806;28;20538;-71
2021/01/11 10:50:11;;;;;;;13.07;8.70;;;;;;;;;;5062620;28;20472;-71
2021/01/11 10:52:40;;;;;;;15.50;9.63;;;;;;;;;;5063724;28;20500;-72
2021/01/11 10:55:09;;;;;;;12.23;8.20;;;;;;;;;;5063205;28;21067;-71
2021/01/11 10:57:36;;;;;;;16.87;8.37;;;;;;;;;;5063269;28;20445;-72
2021/01/11 11:00:07;;;;;;;14.83;10.33;;;;;;;;;;5063083;28;20884;-72
2021/01/11 11:02:36;;;;;;;14.97;9.10;;;;;;;;;;5063515;28;20477;-71
2021/01/11 11:05:05;;;;;;;14.53;9.13;;;;;;;;;;5059801;28;20484;-69
2021/01/11 11:07:38;;;;;;;13.73;9.17;;;;;;;;;;5059594;28;20489;-69
2021/01/11 11:10:06;;;;;;;17.17;10.20;;;;;;;;;;5059669;28;20464;-68
2021/01/11 11:12:34;;;;;;;13.97;10.10;;;;;;;;;;5059312;28;20437;-68
2021/01/11 11:15:01;;;;;;;17.87;9.47;;;;;;;;;;5059517;28;20460;-69
2021/01/11 11:17:31;;;;;;;14.83;9.83;;;;;;;;;;5059610;28;20445;-69
2021/01/11 11:19:58;;;;;;;17.80;9.23;;;;;;;;;;5059666;28;20437;-71
2021/01/11 11:22:28;;;;;;;14.67;10.43;;;;;;;;;;5058481;28;20580;-71
2021/01/11 11:24:55;;;;;;;14.63;9.40;;;;;;;;;;5058960;28;20516;-69
2021/01/11 11:27:22;;;;;;;16.20;10.50;;;;;;;;;;5058748;28;20484;-72
2021/01/11 11:29:51;;;;;;;16.37;10.17;;;;;;;;;;5059036;28;20518;-72
2021/01/11 11:32:18;;;;;;;16.67;10.03;;;;;;;;;;5059763;28;20445;-71
2021/01/11 11:34:45;;;;;;;19.67;11.80;;;;;;;;;;5054470;28;20463;-71
2021/01/11 11:37:13;;;;;;;13.17;8.70;;;;;;;;;;5059289;28;20488;-71
2021/01/11 11:39:40;;;;;;;13.73;9.20;;;;;;;;;;5061238;28;20450;-70
2021/01/11 11:42:07;;;;;;;16.13;9.60;;;;;;;;;;5060870;28;20464;-70
2021/01/11 11:44:34;;;;;;;14.80;9.23;;;;;;;;;;5057987;28;20548;-70
2021/01/11 11:47:02;;;;;;;16.07;9.50;;;;;;;;;;5056944;28;20559;-70
2021/01/11 11:49:29;;;;;;;15.73;8.87;;;;;;;;;;5058621;28;20481;-69
2021/01/11 11:51:56;;;;;;;16.27;8.57;;;;;;;;;;5058987;28;20460;-69
2021/01/11 11:54:24;;;;;;;15.37;9.33;;;;;;;;;;5059022;28;20991;-70
2021/01/11 11:56:51;;;;;;;15.43;9.87;;;;;;;;;;5058735;28;20516;-70
2021/01/11 11:59:18;;;;;;;18.67;10.97;;;;;;;;;;5058575;28;20457;-73
2021/01/11 12:01:45;;;;;;;16.47;10.93;;;;;;;;;;5058965;28;20485;-74
2021/01/11 12:04:15;;;;;;;15.70;9.93;;;;;;;;;;5061154;28;20552;-74
2021/01/11 12:06:43;;;;;;;14.80;8.80;;;;;;;;;;5059080;28;20905;-74
2021/01/11 12:09:11;;;;;;;16.77;9.40;;;;;;;;;;5059842;28;20453;-74
2021/01/11 12:11:39;;;;;;;17.17;9.30;;;;;;;;;;5058782;28;20507;-75
2021/01/11 12:14:06;;;;;;;17.67;9.77;;;;;;;;;;5058956;28;20840;-74
2021/01/11 12:16:33;;;;;;;16.70;10.33;;;;;;;;;;5059037;28;20537;-74
2021/01/11 12:19:00;;;;;;;18.47;11.20;;;;;;;;;;5058884;28;20445;-74
2021/01/11 12:21:29;;;;;;;16.60;10.90;;;;;;;;;;5058499;28;20492;-74
2021/01/11 12:23:57;;;;;;;20.60;10.27;;;;;;;;;;5058802;28;20445;-74
2021/01/11 12:26:24;;;;;;;20.47;11.93;;;;;;;;;;5058891;28;20896;-74
2021/01/11 12:28:52;;;;;;;19.27;10.73;;;;;;;;;;5058746;28;21006;-74
2021/01/11 12:31:28;;;;;;;15.83;9.80;;;;;;;;;;5058637;28;20441;-74
2021/01/11 12:33:55;;;;;;;20.13;10.40;;;;;;;;;;5058499;28;20455;-74
2021/01/11 12:36:31;;;;;;;16.77;9.93;;;;;;;;;;5046558;28;20986;-74
2021/01/11 12:38:59;;;;;;;17.27;9.97;;;;;;;;;;5058244;28;20512;-74
2021/01/11 12:41:26;;;;;;;16.00;10.33;;;;;;;;;;5058446;28;21024;-74
2021/01/11 12:43:54;;;;;;;15.70;9.97;;;;;;;;;;5058581;28;20460;-74
2021/01/11 12:46:23;;;;;;;16.87;10.57;;;;;;;;;;5058255;28;20807;-74
2021/01/11 12:48:51;;;;;;;18.50;11.57;;;;;;;;;;5058194;28;20908;-74
2021/01/11 12:51:18;;;;;;;15.30;10.07;;;;;;;;;;5058159;28;20465;-74
2021/01/11 12:53:47;;;;;;;15.33;10.13;;;;;;;;;;5058178;28;20454;-74
2021/01/11 12:56:14;;;;;;;16.50;9.63;;;;;;;;;;5058029;28;20797;-74
2021/01/11 12:58:41;;;;;;;16.57;9.77;;;;;;;;;;5051849;28;20438;-74
2021/01/11 13:01:08;;;;;;;17.87;10.60;;;;;;;;;;5057162;28;20524;-74
2021/01/11 13:03:36;;;;;;;17.73;9.73;;;;;;;;;;5057909;28;20827;-74
2021/01/11 13:06:03;;;;;;;19.87;11.40;;;;;;;;;;5057875;28;20468;-74
2021/01/11 13:08:31;;;;;;;20.43;11.67;;;;;;;;;;5058118;28;21023;-74
2021/01/11 13:10:59;;;;;;;15.50;9.77;;;;;;;;;;5057743;28;20929;-74
2021/01/11 13:13:26;;;;;;;16.83;11.37;;;;;;;;;;5057946;28;20461;-75
2021/01/11 13:15:54;;;;;;;14.07;9.67;;;;;;;;;;5057861;28;20480;-74
2021/01/11 13:18:21;;;;;;;15.63;10.57;;;;;;;;;;5058016;28;20529;-74
2021/01/11 13:20:52;;;;;;;17.53;10.47;;;;;;;;;;5057794;28;20457;-75
2021/01/11 13:23:20;;;;;;;31.70;11.00;;;;;;;;;;5057729;28;20944;-74
2021/01/11 13:25:47;;;;;;;16.90;9.60;;;;;;;;;;5057560;28;20551;-74
2021/01/11 13:28:15;;;;;;;16.67;9.80;;;;;;;;;;5057152;28;20496;-74
2021/01/11 13:30:43;;;;;;;15.63;9.63;;;;;;;;;;5057851;28;20442;-74
2021/01/11 13:33:10;;;;;;;17.60;10.63;;;;;;;;;;5057523;28;20504;-75
2021/01/11 13:35:38;;;;;;;15.83;10.73;;;;;;;;;;5057331;28;20465;-75
2021/01/11 13:38:05;;;;;;;22.50;10.67;;;;;;;;;;5057456;28;20473;-74
2021/01/11 13:40:32;;;;;;;20.00;10.93;;;;;;;;;;5057658;28;20433;-74
2021/01/11 13:42:59;;;;;;;15.53;10.37;;;;;;;;;;5057348;28;20816;-74
2021/01/11 13:45:27;;;;;;;19.90;11.13;;;;;;;;;;5057420;28;20514;-74
2021/01/11 13:47:54;;;;;;;19.23;11.33;;;;;;;;;;5057456;28;20714;-73
2021/01/11 13:50:22;;;;;;;19.67;11.70;;;;;;;;;;5057027;28;20449;-73
2021/01/11 13:52:48;;;;;;;17.00;11.10;;;;;;;;;;5057553;28;20449;-73
2021/01/11 13:55:15;;;;;;;16.57;10.10;;;;;;;;;;5057418;28;20508;-73
2021/01/11 13:57:43;;;;;;;16.70;10.67;;;;;;;;;;5057272;28;20529;-73
2021/01/11 14:00:10;;;;;;;17.43;11.17;;;;;;;;;;5060401;28;20544;-73
2021/01/11 14:02:38;;;;;;;16.33;9.77;;;;;;;;;;5057065;28;20441;-75
2021/01/11 14:05:06;;;;;;;15.80;10.63;;;;;;;;;;5056699;28;20462;-74
2021/01/11 14:07:33;;;;;;;18.83;11.83;;;;;;;;;;5057095;28;20983;-75
2021/01/11 14:10:00;;;;;;;19.23;12.20;;;;;;;;;;5057300;28;20960;-75
2021/01/11 14:12:30;;;;;;;19.93;11.30;;;;;;;;;;5057117;28;20444;-75
2021/01/11 14:14:58;;;;;;;18.70;10.90;;;;;;;;;;5057484;28;20539;-75
2021/01/11 14:17:25;;;;;;;17.83;11.97;;;;;;;;;;5057160;28;20513;-75
2021/01/11 14:19:54;;;;;;;18.37;11.40;;;;;;;;;;5057205;28;20454;-75
2021/01/11 14:22:21;;;;;;;18.87;11.23;;;;;;;;;;5057119;28;20457;-75
2021/01/11 14:24:49;;;;;;;17.73;10.87;;;;;;;;;;5057116;28;20545;-74
2021/01/11 14:27:16;;;;;;;20.27;11.17;;;;;;;;;;5056675;28;20493;-75
2021/01/11 14:29:43;;;;;;;18.17;10.60;;;;;;;;;;5057413;28;20484;-74
2021/01/11 14:32:11;;;;;;;17.53;11.07;;;;;;;;;;5057172;28;20456;-74
2021/01/11 14:34:38;;;;;;;17.10;11.40;;;;;;;;;;5052243;28;20489;-75
2021/01/11 14:37:06;;;;;;;16.33;10.60;;;;;;;;;;5055582;28;20499;-75
2021/01/11 14:39:34;;;;;;;16.80;10.80;;;;;;;;;;5057292;28;20457;-74